Time;durP1;ratioP1;P1;durP2;ratioP2;P2;SDS_P1;SDS_P2;PMS_P1;PMS_P2;Temp;Humidity;BMP_temperature;BMP_pressure;BME280_temperature;BME280_humidity;BME280_pressure;Samples;Min_cycle;Max_cycle;Signal;HPM_P1;HPM_P2
2024/03/16 00:01:43;;;;;;;;;;;11.20;1.00;;;;;;5075015;28;19916;-84
2024/03/16 00:04:10;;;;;;;;;;;11.20;1.00;;;;;;5074786;28;20332;-85
2024/03/16 00:06:37;;;;;;;;;;;11.20;1.00;;;;;;5070111;28;19919;-85
2024/03/16 00:09:04;;;;;;;;;;;11.20;1.00;;;;;;5067602;28;20397;-85
2024/03/16 00:11:31;;;;;;;;;;;11.20;1.00;;;;;;5074938;28;20305;-85
2024/03/16 00:14:03;;;;;;;;;;;11.30;1.00;;;;;;5056270;28;19916;-85
2024/03/16 00:16:30;;;;;;;;;;;11.30;1.00;;;;;;5056183;28;19959;-86
2024/03/16 00:18:56;;;;;;;;;;;11.30;1.00;;;;;;5074071;28;19916;-85
2024/03/16 00:21:21;;;;;;;;;;;11.30;1.00;;;;;;5074638;28;19913;-85
2024/03/16 00:23:47;;;;;;;;;;;11.30;1.00;;;;;;5072345;28;20046;-85
2024/03/16 00:26:13;;;;;;;;;;;11.30;1.00;;;;;;5075880;28;19909;-85
2024/03/16 00:28:38;;;;;;;;;;;11.30;1.00;;;;;;5088904;28;19915;-85
2024/03/16 00:31:04;;;;;;;;;;;11.30;1.00;;;;;;5102767;28;20038;-86
2024/03/16 00:33:29;;;;;;;;;;;11.30;1.00;;;;;;5094262;28;20002;-85
2024/03/16 00:35:55;;;;;;;;;;;11.30;1.00;;;;;;5088879;28;19958;-85
2024/03/16 00:38:20;;;;;;;;;;;11.30;1.00;;;;;;5094065;28;19995;-86
2024/03/16 00:40:46;;;;;;;;;;;11.30;1.00;;;;;;5076183;28;20423;-85
2024/03/16 00:43:17;;;;;;;;;;;11.30;1.00;;;;;;5073838;28;19962;-85
2024/03/16 00:45:43;;;;;;;;;;;11.30;1.00;;;;;;5073133;28;19940;-85
2024/03/16 00:48:08;;;;;;;;;;;11.30;1.00;;;;;;5082658;28;19912;-85
2024/03/16 00:50:34;;;;;;;;;;;11.30;1.00;;;;;;5063106;28;20363;-86
2024/03/16 00:52:59;;;;;;;;;;;11.30;1.00;;;;;;5073598;28;19931;-85
2024/03/16 00:55:25;;;;;;;;;;;11.30;1.00;;;;;;5092830;28;20009;-86
2024/03/16 00:57:51;;;;;;;;;;;11.30;1.00;;;;;;5093048;28;19912;-85
2024/03/16 01:00:18;;;;;;;;;;;11.30;1.00;;;;;;5093602;28;20327;-86
2024/03/16 01:02:43;;;;;;;;;;;11.30;1.00;;;;;;5086215;28;19969;-86
2024/03/16 01:05:09;;;;;;;;;;;11.30;1.00;;;;;;5093826;28;20007;-86
2024/03/16 01:07:34;;;;;;;;;;;11.20;1.00;;;;;;5053157;28;20011;-86
2024/03/16 01:10:00;;;;;;;;;;;11.30;1.00;;;;;;5073622;28;19947;-86
2024/03/16 01:12:26;;;;;;;;;;;11.30;1.00;;;;;;5054783;28;19931;-86
2024/03/16 01:14:51;;;;;;;;;;;11.30;1.00;;;;;;5073473;28;19972;-86
2024/03/16 01:17:17;;;;;;;;;;;11.30;1.00;;;;;;5072989;28;19995;-85
2024/03/16 01:19:43;;;;;;;;;;;11.30;1.00;;;;;;5093747;28;19908;-85
2024/03/16 01:22:09;;;;;;;;;;;11.20;1.00;;;;;;5060368;28;19912;-86
2024/03/16 01:24:35;;;;;;;;;;;11.20;1.00;;;;;;5074148;28;19971;-86
2024/03/16 01:27:00;;;;;;;;;;;11.20;1.00;;;;;;5064566;28;20274;-85
2024/03/16 01:29:25;;;;;;;;;;;11.20;1.00;;;;;;5089480;28;19963;-86
2024/03/16 01:31:51;;;;;;;;;;;11.20;1.00;;;;;;5070947;28;19919;-86
2024/03/16 01:34:17;;;;;;;;;;;11.20;1.00;;;;;;5091661;28;19965;-86
2024/03/16 01:36:42;;;;;;;;;;;11.20;1.00;;;;;;5087670;28;20002;-86
2024/03/16 01:39:11;;;;;;;;;;;11.20;1.00;;;;;;5093501;28;19908;-86
2024/03/16 01:41:37;;;;;;;;;;;11.20;1.00;;;;;;5074480;28;19954;-86
2024/03/16 01:44:10;;;;;;;;;;;11.20;1.00;;;;;;5081715;28;19909;-85
2024/03/16 01:46:36;;;;;;;;;;;11.20;1.00;;;;;;5080443;28;20368;-86
2024/03/16 01:49:02;;;;;;;;;;;11.10;1.00;;;;;;5073793;28;19965;-85
2024/03/16 01:51:30;;;;;;;;;;;11.20;1.00;;;;;;5090298;28;19940;-86
2024/03/16 01:53:55;;;;;;;;;;;11.20;1.00;;;;;;5085386;28;19916;-86
2024/03/16 01:56:21;;;;;;;;;;;11.10;1.00;;;;;;5087007;28;19965;-85
2024/03/16 01:58:48;;;;;;;;;;;11.10;1.00;;;;;;5080064;28;19919;-85
2024/03/16 02:01:14;;;;;;;;;;;11.10;1.00;;;;;;5074770;28;19908;-85
2024/03/16 02:03:40;;;;;;;;;;;11.10;1.00;;;;;;5092976;28;19912;-86
2024/03/16 02:06:06;;;;;;;;;;;11.10;1.00;;;;;;5076966;28;19912;-86
2024/03/16 02:08:32;;;;;;;;;;;11.10;1.00;;;;;;5100041;28;19960;-86
2024/03/16 02:10:57;;;;;;;;;;;11.10;1.00;;;;;;5100197;28;20361;-86
2024/03/16 02:13:22;;;;;;;;;;;11.10;1.00;;;;;;5077851;28;19924;-86
2024/03/16 02:15:48;;;;;;;;;;;11.00;1.00;;;;;;5060236;28;19975;-86
2024/03/16 02:18:13;;;;;;;;;;;10.90;1.00;;;;;;5078734;28;19916;-86
2024/03/16 02:20:39;;;;;;;;;;;10.90;1.00;;;;;;5090909;28;19912;-85
2024/03/16 02:23:04;;;;;;;;;;;10.90;1.00;;;;;;5069727;28;19909;-86
2024/03/16 02:25:30;;;;;;;;;;;10.80;1.00;;;;;;5099277;28;19912;-85
2024/03/16 02:27:56;;;;;;;;;;;10.80;1.00;;;;;;5091594;28;19912;-86
2024/03/16 02:30:21;;;;;;;;;;;10.80;6.10;;;;;;5091820;28;19913;-85
2024/03/16 02:32:47;;;;;;;;;;;10.80;9.60;;;;;;5082245;28;20382;-85
2024/03/16 02:35:12;;;;;;;;;;;10.80;14.20;;;;;;5060587;28;20437;-86
2024/03/16 02:37:38;;;;;;;;;;;10.80;17.80;;;;;;5097709;28;19935;-86
2024/03/16 02:40:04;;;;;;;;;;;10.90;21.10;;;;;;5079333;28;19908;-86
2024/03/16 02:42:29;;;;;;;;;;;10.90;22.70;;;;;;5097896;28;19974;-85
2024/03/16 02:44:55;;;;;;;;;;;10.90;24.80;;;;;;5092351;28;19919;-85
2024/03/16 02:47:20;;;;;;;;;;;10.90;26.90;;;;;;5097647;28;20318;-86
2024/03/16 02:49:49;;;;;;;;;;;11.00;27.30;;;;;;5079060;28;19974;-86
2024/03/16 02:52:14;;;;;;;;;;;10.90;27.00;;;;;;5068610;28;19908;-86
2024/03/16 02:54:40;;;;;;;;;;;11.00;26.40;;;;;;5073218;28;20452;-86
2024/03/16 02:57:06;;;;;;;;;;;11.00;28.00;;;;;;5099625;28;19908;-86
2024/03/16 02:59:31;;;;;;;;;;;11.00;31.30;;;;;;5091557;28;19913;-86
2024/03/16 03:01:57;;;;;;;;;;;11.00;35.00;;;;;;5079863;28;20370;-86
2024/03/16 03:04:23;;;;;;;;;;;11.00;35.20;;;;;;5079096;28;19909;-85
2024/03/16 03:06:48;;;;;;;;;;;11.10;34.90;;;;;;5089015;28;19908;-86
2024/03/16 03:09:14;;;;;;;;;;;11.10;35.10;;;;;;5070730;28;20355;-86
2024/03/16 03:11:40;;;;;;;;;;;11.10;35.40;;;;;;5079147;28;19914;-86
2024/03/16 03:14:08;;;;;;;;;;;11.10;33.30;;;;;;5078791;28;20409;-86
2024/03/16 03:16:33;;;;;;;;;;;11.20;32.30;;;;;;5098642;28;19924;-86
2024/03/16 03:18:59;;;;;;;;;;;11.20;29.50;;;;;;5095587;28;19908;-85
2024/03/16 03:21:24;;;;;;;;;;;11.20;27.60;;;;;;5081838;28;19912;-86
2024/03/16 03:23:50;;;;;;;;;;;11.30;25.00;;;;;;5084027;28;19909;-86
2024/03/16 03:26:16;;;;;;;;;;;11.20;22.80;;;;;;5074452;28;19958;-85
2024/03/16 03:28:42;;;;;;;;;;;11.20;21.20;;;;;;5073497;28;19962;-85
2024/03/16 03:31:09;;;;;;;;;;;11.20;19.60;;;;;;5095482;28;19912;-85
2024/03/16 03:33:34;;;;;;;;;;;11.20;19.00;;;;;;5095836;28;20369;-86
2024/03/16 03:36:02;;;;;;;;;;;11.20;19.00;;;;;;5093935;28;19958;-86
2024/03/16 03:38:28;;;;;;;;;;;11.20;18.10;;;;;;5095468;28;19959;-86
2024/03/16 03:40:53;;;;;;;;;;;11.30;18.10;;;;;;5088372;28;19912;-85
2024/03/16 03:43:21;;;;;;;;;;;11.20;18.30;;;;;;5079565;28;20310;-85
2024/03/16 03:45:53;;;;;;;;;;;11.30;16.40;;;;;;5071415;28;20477;-86
2024/03/16 03:48:25;;;;;;;;;;;11.30;15.90;;;;;;5086206;28;19908;-86
2024/03/16 03:50:55;;;;;;;;;;;11.20;15.90;;;;;;5075510;28;20287;-86
2024/03/16 03:53:21;;;;;;;;;;;11.30;15.40;;;;;;5083303;28;20282;-86
2024/03/16 03:55:47;;;;;;;;;;;11.20;15.80;;;;;;5088050;28;20012;-85
2024/03/16 03:58:13;;;;;;;;;;;11.20;15.70;;;;;;5077376;28;19908;-85
2024/03/16 04:00:38;;;;;;;;;;;11.40;15.40;;;;;;5093340;28;19912;-86
2024/03/16 04:03:06;;;;;;;;;;;11.30;16.70;;;;;;5074500;28;19916;-85
2024/03/16 04:05:32;;;;;;;;;;;11.40;19.50;;;;;;5084320;28;19969;-86
2024/03/16 04:07:58;;;;;;;;;;;11.30;22.80;;;;;;5094390;28;20301;-86
2024/03/16 04:10:23;;;;;;;;;;;11.30;25.80;;;;;;5095074;28;19912;-86
2024/03/16 04:12:49;;;;;;;;;;;11.30;29.00;;;;;;5107728;28;20421;-85
2024/03/16 04:15:14;;;;;;;;;;;11.30;33.60;;;;;;5077033;28;19999;-85
2024/03/16 04:17:40;;;;;;;;;;;11.30;39.90;;;;;;5094736;28;20062;-85
2024/03/16 04:20:12;;;;;;;;;;;11.20;47.80;;;;;;5075433;28;19976;-86
2024/03/16 04:22:38;;;;;;;;;;;11.20;55.30;;;;;;5077655;28;19960;-85
2024/03/16 04:25:03;;;;;;;;;;;11.20;59.50;;;;;;5086054;28;19912;-86
2024/03/16 04:27:29;;;;;;;;;;;11.20;67.80;;;;;;5094432;28;19908;-86
2024/03/16 04:29:55;;;;;;;;;;;11.10;76.00;;;;;;5093507;28;19908;-85
2024/03/16 04:32:24;;;;;;;;;;;11.10;82.00;;;;;;5094665;28;19970;-85
2024/03/16 04:34:49;;;;;;;;;;;11.10;85.60;;;;;;5076640;28;19912;-86
2024/03/16 04:37:15;;;;;;;;;;;11.10;90.10;;;;;;5084783;28;19913;-85
2024/03/16 04:39:43;;;;;;;;;;;11.10;91.60;;;;;;5076218;28;20001;-85
2024/03/16 04:42:12;;;;;;;;;;;11.10;93.90;;;;;;5094811;28;19995;-86
2024/03/16 04:44:37;;;;;;;;;;;11.00;96.80;;;;;;5075831;28;19908;-85
2024/03/16 04:47:03;;;;;;;;;;;11.00;98.50;;;;;;5094593;28;19908;-85
2024/03/16 04:49:29;;;;;;;;;;;11.10;99.90;;;;;;5073671;28;19912;-86
2024/03/16 04:51:55;;;;;;;;;;;11.10;99.90;;;;;;5087666;28;19919;-85
2024/03/16 04:54:21;;;;;;;;;;;11.10;99.90;;;;;;5054597;28;20353;-86
2024/03/16 04:56:46;;;;;;;;;;;11.10;99.90;;;;;;5074561;28;19920;-85
2024/03/16 04:59:11;;;;;;;;;;;11.10;99.90;;;;;;5073126;28;19915;-85
2024/03/16 05:01:37;;;;;;;;;;;11.10;99.90;;;;;;5069665;28;19912;-86
2024/03/16 05:04:03;;;;;;;;;;;11.10;99.90;;;;;;5072543;28;19915;-85
2024/03/16 05:06:31;;;;;;;;;;;11.10;99.90;;;;;;5073164;28;19920;-85
2024/03/16 05:08:56;;;;;;;;;;;11.10;99.90;;;;;;5060347;28;19912;-85
2024/03/16 05:11:22;;;;;;;;;;;11.10;99.90;;;;;;5076147;28;19982;-85
2024/03/16 05:13:48;;;;;;;;;;;11.10;99.90;;;;;;5089164;28;20014;-86
2024/03/16 05:16:13;;;;;;;;;;;11.10;99.90;;;;;;5093551;28;19913;-85
2024/03/16 05:18:38;;;;;;;;;;;11.10;99.90;;;;;;5093612;28;19909;-85
2024/03/16 05:21:04;;;;;;;;;;;11.10;99.90;;;;;;5065964;28;19912;-85
2024/03/16 05:23:30;;;;;;;;;;;11.10;99.90;;;;;;5073809;28;19962;-86
2024/03/16 05:25:55;;;;;;;;;;;11.10;99.90;;;;;;5055461;28;19909;-86
2024/03/16 05:28:21;;;;;;;;;;;11.10;99.90;;;;;;5072812;28;20382;-85
2024/03/16 05:30:50;;;;;;;;;;;11.10;99.90;;;;;;5093338;28;19912;-85
2024/03/16 05:33:17;;;;;;;;;;;11.10;99.90;;;;;;5075211;28;19908;-85
2024/03/16 05:35:43;;;;;;;;;;;11.10;99.90;;;;;;5092998;28;20047;-85
2024/03/16 05:38:08;;;;;;;;;;;11.10;99.90;;;;;;5090804;28;19978;-85
2024/03/16 05:40:35;;;;;;;;;;;11.10;99.90;;;;;;5068532;28;19913;-85
2024/03/16 05:43:01;;;;;;;;;;;11.10;99.90;;;;;;5069804;28;19912;-85
2024/03/16 05:45:26;;;;;;;;;;;11.00;99.90;;;;;;5089633;28;19915;-85
2024/03/16 05:47:52;;;;;;;;;;;10.90;83.30;;;;;;5093252;28;19908;-85
2024/03/16 05:50:18;;;;;;;;;;;10.80;67.30;;;;;;5093441;28;19919;-85
2024/03/16 05:52:44;;;;;;;;;;;10.70;65.80;;;;;;5078424;28;19916;-85
2024/03/16 05:55:09;;;;;;;;;;;10.50;57.60;;;;;;5078407;28;19913;-85
2024/03/16 05:57:35;;;;;;;;;;;10.50;63.50;;;;;;5064199;28;19909;-85
2024/03/16 06:00:01;;;;;;;;;;;10.40;68.30;;;;;;5074546;28;20314;-85
2024/03/16 06:02:26;;;;;;;;;;;10.40;70.20;;;;;;5072080;28;19953;-84
2024/03/16 06:04:52;;;;;;;;;;;10.30;73.30;;;;;;5066419;28;20362;-85
2024/03/16 06:07:19;;;;;;;;;;;10.20;72.20;;;;;;5093129;28;19935;-85
2024/03/16 06:09:44;;;;;;;;;;;10.20;64.50;;;;;;5074614;28;19912;-85
2024/03/16 06:12:10;;;;;;;;;;;10.20;57.40;;;;;;5089653;28;19908;-85
2024/03/16 06:14:35;;;;;;;;;;;10.20;54.50;;;;;;5071844;28;19916;-85
2024/03/16 06:17:01;;;;;;;;;;;10.10;52.60;;;;;;5065075;28;19920;-85
2024/03/16 06:19:26;;;;;;;;;;;10.00;53.10;;;;;;5092109;28;20374;-85
2024/03/16 06:21:52;;;;;;;;;;;10.00;59.60;;;;;;5075665;28;19912;-85
2024/03/16 06:24:17;;;;;;;;;;;9.90;69.60;;;;;;5080861;28;19913;-85
2024/03/16 06:26:49;;;;;;;;;;;9.90;77.50;;;;;;5055002;28;19909;-85
2024/03/16 06:29:15;;;;;;;;;;;9.90;87.40;;;;;;5079374;28;20309;-85
2024/03/16 06:31:42;;;;;;;;;;;9.90;91.50;;;;;;5092842;28;19908;-85
2024/03/16 06:34:08;;;;;;;;;;;9.90;89.80;;;;;;5078757;28;20014;-85
2024/03/16 06:36:34;;;;;;;;;;;9.90;88.70;;;;;;5082482;28;19909;-84
2024/03/16 06:39:10;;;;;;;;;;;9.90;91.40;;;;;;5074171;28;19919;-84
2024/03/16 06:41:35;;;;;;;;;;;9.90;90.40;;;;;;5093017;28;19961;-85
2024/03/16 06:44:02;;;;;;;;;;;9.80;90.00;;;;;;5093311;28;19912;-85
2024/03/16 06:46:28;;;;;;;;;;;9.90;85.20;;;;;;5089777;28;19931;-85
2024/03/16 06:48:53;;;;;;;;;;;10.00;82.50;;;;;;5093206;28;20258;-85
2024/03/16 06:51:19;;;;;;;;;;;10.00;82.20;;;;;;5073350;28;19912;-85
2024/03/16 06:53:45;;;;;;;;;;;9.90;79.40;;;;;;5084464;28;19912;-84
2024/03/16 06:56:13;;;;;;;;;;;9.90;72.80;;;;;;5090416;28;19916;-85
2024/03/16 06:58:38;;;;;;;;;;;9.90;62.90;;;;;;5096602;28;19914;-84
2024/03/16 07:01:04;;;;;;;;;;;9.90;56.40;;;;;;5090869;28;20382;-85
2024/03/16 07:03:29;;;;;;;;;;;10.00;45.20;;;;;;5072197;28;20461;-85
2024/03/16 07:05:55;;;;;;;;;;;10.10;35.20;;;;;;5056794;28;19908;-84
2024/03/16 07:08:21;;;;;;;;;;;10.20;23.90;;;;;;5076041;28;19997;-84
2024/03/16 07:10:47;;;;;;;;;;;10.20;4.30;;;;;;5086943;28;20331;-85
2024/03/16 07:13:12;;;;;;;;;;;10.20;1.00;;;;;;5072986;28;19955;-85
2024/03/16 07:15:39;;;;;;;;;;;10.30;1.00;;;;;;5077185;28;19962;-84
2024/03/16 07:18:05;;;;;;;;;;;10.50;1.00;;;;;;5075724;28;19951;-84
2024/03/16 07:20:30;;;;;;;;;;;10.60;1.00;;;;;;5074511;28;19951;-84
2024/03/16 07:22:56;;;;;;;;;;;10.60;1.00;;;;;;5060394;28;19908;-85
2024/03/16 07:25:21;;;;;;;;;;;10.80;1.00;;;;;;5095814;28;19908;-84
2024/03/16 07:27:47;;;;;;;;;;;10.80;1.00;;;;;;5096391;28;20286;-84
2024/03/16 07:30:12;;;;;;;;;;;10.90;1.00;;;;;;5096000;28;19946;-85
2024/03/16 07:32:38;;;;;;;;;;;10.80;1.00;;;;;;5094792;28;19999;-84
2024/03/16 07:35:06;;;;;;;;;;;11.10;1.00;;;;;;5080880;28;19916;-85
2024/03/16 07:37:32;;;;;;;;;;;13.20;99.90;;;;;;5075330;28;20325;-85
2024/03/16 07:39:57;;;;;;;;;;;15.50;1.00;;;;;;5074602;28;19908;-86
2024/03/16 07:42:23;;;;;;;;;;;18.40;1.00;;;;;;5056986;28;20049;-85
2024/03/16 07:44:49;;;;;;;;;;;17.90;1.00;;;;;;5056760;28;19919;-85
2024/03/16 07:47:15;;;;;;;;;;;16.80;1.00;;;;;;5075741;28;20337;-85
2024/03/16 07:49:40;;;;;;;;;;;15.60;1.00;;;;;;5074874;28;19909;-84
2024/03/16 07:52:07;;;;;;;;;;;14.50;1.00;;;;;;5074825;28;20373;-85
2024/03/16 07:54:33;;;;;;;;;;;13.70;99.90;;;;;;5071709;28;19931;-85
2024/03/16 07:56:58;;;;;;;;;;;13.20;99.90;;;;;;5056343;28;19908;-86
2024/03/16 07:59:24;;;;;;;;;;;13.00;1.00;;;;;;5074221;28;19963;-85
2024/03/16 08:01:50;;;;;;;;;;;13.70;1.00;;;;;;5077268;28;19912;-86
2024/03/16 08:04:15;;;;;;;;;;;15.20;38.10;;;;;;5070545;28;19956;-86
2024/03/16 08:06:41;;;;;;;;;;;15.70;1.00;;;;;;5073047;28;19924;-86
2024/03/16 08:09:08;;;;;;;;;;;17.40;1.00;;;;;;5094265;28;20357;-86
2024/03/16 08:11:34;;;;;;;;;;;17.40;1.00;;;;;;5085588;28;19912;-86
2024/03/16 08:13:59;;;;;;;;;;;17.10;1.00;;;;;;5075986;28;19916;-86
2024/03/16 08:16:25;;;;;;;;;;;16.40;1.00;;;;;;5094353;28;19912;-86
2024/03/16 08:18:50;;;;;;;;;;;15.60;1.00;;;;;;5084621;28;19916;-86
2024/03/16 08:21:17;;;;;;;;;;;15.10;1.00;;;;;;5061806;28;19920;-85
2024/03/16 08:23:45;;;;;;;;;;;14.60;1.00;;;;;;5067415;28;20396;-86
2024/03/16 08:26:12;;;;;;;;;;;14.00;1.00;;;;;;5078321;28;19954;-85
2024/03/16 08:28:38;;;;;;;;;;;13.60;99.90;;;;;;5093836;28;19962;-86
2024/03/16 08:31:05;;;;;;;;;;;13.30;99.90;;;;;;5076231;28;19912;-86
2024/03/16 08:33:31;;;;;;;;;;;13.20;1.00;;;;;;5076419;28;19908;-86
2024/03/16 08:35:56;;;;;;;;;;;13.20;1.00;;;;;;5075892;28;19915;-86
2024/03/16 08:38:23;;;;;;;;;;;13.30;1.00;;;;;;5087846;28;20570;-86
2024/03/16 08:40:49;;;;;;;;;;;13.30;1.00;;;;;;5065329;28;19912;-86
2024/03/16 08:43:14;;;;;;;;;;;13.30;99.90;;;;;;5060689;28;19954;-87
2024/03/16 08:45:40;;;;;;;;;;;13.60;99.90;;;;;;5093679;28;19963;-85
2024/03/16 08:48:06;;;;;;;;;;;13.90;99.90;;;;;;5093562;28;19952;-85
2024/03/16 08:50:32;;;;;;;;;;;14.00;8.70;;;;;;5092837;28;20617;-86
2024/03/16 08:52:58;;;;;;;;;;;13.90;47.20;;;;;;5082035;28;19912;-86
2024/03/16 08:55:24;;;;;;;;;;;13.60;99.90;;;;;;5071292;28;19916;-85
2024/03/16 08:57:49;;;;;;;;;;;13.40;99.90;;;;;;5070866;28;19916;-86
2024/03/16 09:00:15;;;;;;;;;;;14.30;99.90;;;;;;5073875;28;19915;-86
2024/03/16 09:02:41;;;;;;;;;;;15.00;1.00;;;;;;5073278;28;19958;-86
2024/03/16 09:05:10;;;;;;;;;;;15.70;1.00;;;;;;5058852;28;19978;-86
2024/03/16 09:07:38;;;;;;;;;;;16.70;1.00;;;;;;5066018;28;19912;-87
2024/03/16 09:10:07;;;;;;;;;;;16.40;1.00;;;;;;5093524;28;20002;-87
2024/03/16 09:12:34;;;;;;;;;;;16.20;1.00;;;;;;5088994;28;20008;-86
2024/03/16 09:15:00;;;;;;;;;;;15.90;1.00;;;;;;5092522;28;20015;-86
2024/03/16 09:17:26;;;;;;;;;;;15.30;1.00;;;;;;5092769;28;20320;-86
2024/03/16 09:19:51;;;;;;;;;;;14.70;1.00;;;;;;5093401;28;19968;-86
2024/03/16 09:22:17;;;;;;;;;;;14.00;1.00;;;;;;5075626;28;19973;-86
2024/03/16 09:24:42;;;;;;;;;;;13.50;99.90;;;;;;5076871;28;19991;-85
2024/03/16 09:27:08;;;;;;;;;;;13.00;99.90;;;;;;5092807;28;19908;-85
2024/03/16 09:29:33;;;;;;;;;;;12.40;35.60;;;;;;5084870;28;20262;-85
2024/03/16 09:32:01;;;;;;;;;;;11.90;99.90;;;;;;5093299;28;19908;-86
2024/03/16 09:34:26;;;;;;;;;;;11.60;99.90;;;;;;5071474;28;20432;-86
2024/03/16 09:36:52;;;;;;;;;;;11.40;99.90;;;;;;5072603;28;19999;-86
2024/03/16 09:39:18;;;;;;;;;;;11.30;13.20;;;;;;5085219;28;19925;-86
2024/03/16 09:41:46;;;;;;;;;;;11.30;99.90;;;;;;5058988;28;19913;-86
2024/03/16 09:44:13;;;;;;;;;;;11.40;1.00;;;;;;5076072;28;19908;-86
2024/03/16 09:46:42;;;;;;;;;;;11.30;1.00;;;;;;5075277;28;19951;-85
2024/03/16 09:49:09;;;;;;;;;;;11.40;1.00;;;;;;5084420;28;20281;-85
2024/03/16 09:51:36;;;;;;;;;;;11.60;99.90;;;;;;5058501;28;20437;-86
2024/03/16 09:54:08;;;;;;;;;;;12.00;1.00;;;;;;5073446;28;19960;-86
2024/03/16 09:56:37;;;;;;;;;;;12.30;99.90;;;;;;5079530;28;20351;-86
2024/03/16 09:59:03;;;;;;;;;;;12.80;99.90;;;;;;5078844;28;21211;-87
2024/03/16 10:01:30;;;;;;;;;;;13.20;99.90;;;;;;5077434;28;20023;-86
2024/03/16 10:03:55;;;;;;;;;;;13.90;1.00;;;;;;5059090;28;19986;-86
2024/03/16 10:06:22;;;;;;;;;;;14.60;99.90;;;;;;5077353;28;19908;-87
2024/03/16 10:08:47;;;;;;;;;;;15.10;1.00;;;;;;5054205;28;20489;-85
2024/03/16 10:11:14;;;;;;;;;;;15.40;1.00;;;;;;5071450;28;19947;-86
2024/03/16 10:13:53;;;;;;;;;;;15.70;1.00;;;;;;5072540;28;20432;-86
2024/03/16 10:16:20;;;;;;;;;;;16.00;1.00;;;;;;5058128;28;19916;-86
2024/03/16 10:18:45;;;;;;;;;;;16.40;1.00;;;;;;5087706;28;20282;-86
2024/03/16 10:21:11;;;;;;;;;;;16.10;1.00;;;;;;5059003;28;19921;-85
2024/03/16 10:23:37;;;;;;;;;;;15.90;1.00;;;;;;5076507;28;19913;-85
2024/03/16 10:26:08;;;;;;;;;;;15.80;1.00;;;;;;5081971;28;19940;-86
2024/03/16 10:28:37;;;;;;;;;;;15.50;1.00;;;;;;5073171;28;19955;-85
2024/03/16 10:31:03;;;;;;;;;;;15.10;1.00;;;;;;5091605;28;19920;-86
2024/03/16 10:33:28;;;;;;;;;;;14.70;1.00;;;;;;5092467;28;19912;-85
2024/03/16 10:35:56;;;;;;;;;;;14.30;1.00;;;;;;5068564;28;20005;-86
2024/03/16 10:38:23;;;;;;;;;;;14.20;1.00;;;;;;5075306;28;20018;-85
2024/03/16 10:40:49;;;;;;;;;;;14.30;1.00;;;;;;5076335;28;19909;-86
2024/03/16 10:43:15;;;;;;;;;;;14.40;1.00;;;;;;5087325;28;19915;-85
2024/03/16 10:45:45;;;;;;;;;;;14.40;1.00;;;;;;5086662;28;19922;-85
2024/03/16 10:48:11;;;;;;;;;;;14.40;1.00;;;;;;5065274;28;19928;-85
2024/03/16 10:50:36;;;;;;;;;;;14.20;1.00;;;;;;5076160;28;19908;-85
2024/03/16 10:53:03;;;;;;;;;;;13.80;1.00;;;;;;5072801;28;19975;-84
2024/03/16 10:55:29;;;;;;;;;;;13.50;1.00;;;;;;5070171;28;19968;-86
2024/03/16 10:57:55;;;;;;;;;;;13.20;1.00;;;;;;5075193;28;19912;-85
2024/03/16 11:00:20;;;;;;;;;;;12.80;1.00;;;;;;5076116;28;19995;-84
2024/03/16 11:02:46;;;;;;;;;;;12.50;1.00;;;;;;5075575;28;19955;-85
2024/03/16 11:05:30;;;;;;;;;;;12.30;1.00;;;;;;5085954;28;19915;-85
2024/03/16 11:08:00;;;;;;;;;;;12.20;1.00;;;;;;5077415;28;19915;-85
2024/03/16 11:10:36;;;;;;;;;;;12.20;1.00;;;;;;5076549;28;19920;-84
2024/03/16 11:13:17;;;;;;;;;;;12.20;1.00;;;;;;5083694;28;19922;-83
2024/03/16 11:15:45;;;;;;;;;;;12.30;1.00;;;;;;5089720;28;19978;-83
2024/03/16 11:18:16;;;;;;;;;;;12.30;1.00;;;;;;5090937;28;19920;-83
2024/03/16 11:20:50;;;;;;;;;;;12.30;1.00;;;;;;5079498;28;19935;-82
2024/03/16 11:23:28;;;;;;;;;;;12.40;1.00;;;;;;5081761;28;20336;-84
2024/03/16 11:25:54;;;;;;;;;;;12.50;1.00;;;;;;5080038;28;19974;-83
2024/03/16 11:28:20;;;;;;;;;;;12.60;1.00;;;;;;5084924;28;19912;-83
2024/03/16 11:30:46;;;;;;;;;;;12.70;1.00;;;;;;5079299;28;19921;-83
2024/03/16 11:33:18;;;;;;;;;;;12.80;1.00;;;;;;5057358;28;20281;-83
2024/03/16 11:35:47;;;;;;;;;;;13.00;1.00;;;;;;5059550;28;20011;-83
2024/03/16 11:38:16;;;;;;;;;;;13.30;1.00;;;;;;5065399;28;19919;-84
2024/03/16 11:40:47;;;;;;;;;;;13.60;1.00;;;;;;5066706;28;19912;-83
2024/03/16 11:43:12;;;;;;;;;;;13.60;1.00;;;;;;5053956;28;20349;-83
2024/03/16 11:45:41;;;;;;;;;;;13.50;99.90;;;;;;5080944;28;19908;-82
2024/03/16 11:48:10;;;;;;;;;;;13.40;99.90;;;;;;5076581;28;19908;-83
2024/03/16 11:50:36;;;;;;;;;;;13.20;99.90;;;;;;5071512;28;19916;-83
2024/03/16 11:53:02;;;;;;;;;;;13.10;99.90;;;;;;5065925;28;19912;-83
2024/03/16 11:55:32;;;;;;;;;;;13.10;99.90;;;;;;5074113;28;20422;-84
2024/03/16 11:58:09;;;;;;;;;;;13.00;99.90;;;;;;5075698;28;19912;-83
2024/03/16 12:00:35;;;;;;;;;;;12.90;99.90;;;;;;5063980;28;19912;-84
2024/03/16 12:03:03;;;;;;;;;;;12.90;99.90;;;;;;5065530;28;19916;-83
2024/03/16 12:05:30;;;;;;;;;;;13.10;99.90;;;;;;5071313;28;19912;-83
2024/03/16 12:07:56;;;;;;;;;;;13.20;99.90;;;;;;5071509;28;19918;-84
2024/03/16 12:10:25;;;;;;;;;;;13.50;99.90;;;;;;5085660;28;19995;-84
2024/03/16 12:12:50;;;;;;;;;;;13.80;99.90;;;;;;5056273;28;19916;-84
2024/03/16 12:15:17;;;;;;;;;;;14.20;99.90;;;;;;5078427;28;19966;-84
2024/03/16 12:17:46;;;;;;;;;;;14.50;99.90;;;;;;5073712;28;19979;-84
2024/03/16 12:20:12;;;;;;;;;;;14.70;99.90;;;;;;5070227;28;19916;-83
2024/03/16 12:22:44;;;;;;;;;;;14.80;99.90;;;;;;5079938;28;20011;-84
2024/03/16 12:25:10;;;;;;;;;;;14.80;99.90;;;;;;5066155;28;19913;-85
2024/03/16 12:27:41;;;;;;;;;;;14.90;99.90;;;;;;5086945;28;20007;-84
2024/03/16 12:30:08;;;;;;;;;;;15.00;99.90;;;;;;5065550;28;19912;-83
2024/03/16 12:32:34;;;;;;;;;;;15.00;99.90;;;;;;5092573;28;20076;-84
2024/03/16 12:34:59;;;;;;;;;;;15.00;99.90;;;;;;5075467;28;19995;-83
2024/03/16 12:37:25;;;;;;;;;;;14.90;99.90;;;;;;5061305;28;19916;-84
2024/03/16 12:39:50;;;;;;;;;;;14.90;99.90;;;;;;5071116;28;19912;-84
2024/03/16 12:42:16;;;;;;;;;;;14.80;99.90;;;;;;5073049;28;19916;-83
2024/03/16 12:44:43;;;;;;;;;;;14.60;99.90;;;;;;5077421;28;19991;-83
2024/03/16 12:47:09;;;;;;;;;;;14.40;99.90;;;;;;5081635;28;19959;-83
2024/03/16 12:49:36;;;;;;;;;;;14.20;99.90;;;;;;5083729;28;19912;-84
2024/03/16 12:52:01;;;;;;;;;;;14.00;99.90;;;;;;5072904;28;19908;-84
2024/03/16 12:54:27;;;;;;;;;;;13.80;99.90;;;;;;5065969;28;19970;-83
2024/03/16 12:56:52;;;;;;;;;;;13.70;99.90;;;;;;5074490;28;19920;-84
2024/03/16 12:59:20;;;;;;;;;;;13.50;99.90;;;;;;5065170;28;19912;-83
2024/03/16 13:01:46;;;;;;;;;;;13.30;99.90;;;;;;5057817;28;20393;-84
2024/03/16 13:04:12;;;;;;;;;;;13.10;99.90;;;;;;5074776;28;20366;-83
2024/03/16 13:06:37;;;;;;;;;;;12.90;99.90;;;;;;5074028;28;19916;-83
2024/03/16 13:09:10;;;;;;;;;;;12.90;99.90;;;;;;5074340;28;19936;-83
2024/03/16 13:11:36;;;;;;;;;;;12.80;99.90;;;;;;5051324;28;19959;-83
2024/03/16 13:14:01;;;;;;;;;;;12.80;99.90;;;;;;5069899;28;20377;-83
2024/03/16 13:16:27;;;;;;;;;;;12.70;99.90;;;;;;5057427;28;19979;-83
2024/03/16 13:18:54;;;;;;;;;;;12.60;99.90;;;;;;5070599;28;20068;-83
2024/03/16 13:21:19;;;;;;;;;;;12.50;99.90;;;;;;5072998;28;19912;-83
2024/03/16 13:23:45;;;;;;;;;;;12.50;99.90;;;;;;5068006;28;19923;-83
2024/03/16 13:26:14;;;;;;;;;;;12.60;99.90;;;;;;5082742;28;19917;-82
2024/03/16 13:28:40;;;;;;;;;;;12.70;99.90;;;;;;5080116;28;19915;-83
2024/03/16 13:31:09;;;;;;;;;;;12.90;99.90;;;;;;5073973;28;19948;-83
2024/03/16 13:33:36;;;;;;;;;;;13.10;99.90;;;;;;5055087;28;19908;-83
2024/03/16 13:36:01;;;;;;;;;;;13.10;99.90;;;;;;5081260;28;19912;-83
2024/03/16 13:38:27;;;;;;;;;;;13.30;99.90;;;;;;5054487;28;20340;-82
2024/03/16 13:40:53;;;;;;;;;;;13.40;99.90;;;;;;5073896;28;19912;-83
2024/03/16 13:43:20;;;;;;;;;;;13.60;99.90;;;;;;5073633;28;19948;-84
2024/03/16 13:45:46;;;;;;;;;;;13.70;99.90;;;;;;5068410;28;20289;-84
2024/03/16 13:48:11;;;;;;;;;;;13.80;99.90;;;;;;5059054;28;19952;-84
2024/03/16 13:50:39;;;;;;;;;;;13.90;99.90;;;;;;5085253;28;19913;-83
2024/03/16 13:53:05;;;;;;;;;;;13.90;99.90;;;;;;5066901;28;20178;-83
2024/03/16 13:55:30;;;;;;;;;;;13.80;99.90;;;;;;5072111;28;19920;-84
2024/03/16 13:57:56;;;;;;;;;;;13.80;99.90;;;;;;5073792;28;19916;-85
2024/03/16 14:00:22;;;;;;;;;;;13.90;99.90;;;;;;5055762;28;19939;-84
2024/03/16 14:02:49;;;;;;;;;;;14.00;99.90;;;;;;5072655;28;19970;-83
2024/03/16 14:05:14;;;;;;;;;;;14.10;99.90;;;;;;5070720;28;20021;-84
2024/03/16 14:07:40;;;;;;;;;;;14.10;99.90;;;;;;5070370;28;20009;-84
2024/03/16 14:10:08;;;;;;;;;;;14.10;99.90;;;;;;5066864;28;19913;-84
2024/03/16 14:12:33;;;;;;;;;;;14.20;99.90;;;;;;5082121;28;19972;-85
2024/03/16 14:15:00;;;;;;;;;;;14.20;99.90;;;;;;5056437;28;20227;-83
2024/03/16 14:17:28;;;;;;;;;;;14.10;99.90;;;;;;5091116;28;19938;-84
2024/03/16 14:19:53;;;;;;;;;;;14.00;99.90;;;;;;5071128;28;20393;-85